Time;durP1;ratioP1;P1;durP2;ratioP2;P2;SDS_P1;SDS_P2;PMS_P1;PMS_P2;Temp;Humidity;BMP_temperature;BMP_pressure;BME280_temperature;BME280_humidity;BME280_pressure;Samples;Min_cycle;Max_cycle;Signal;HPM_P1;HPM_P2
2022/11/25 00:01:05;;;;;;;5.43;2.07;;;;;;;;;;5002613;28;20681;-60
2022/11/25 00:03:31;;;;;;;6.93;2.57;;;;;;;;;;4988684;28;20183;-61
2022/11/25 00:05:57;;;;;;;4.03;2.17;;;;;;;;;;4986837;28;20191;-59
2022/11/25 00:08:23;;;;;;;6.17;2.20;;;;;;;;;;4988433;28;20263;-59
2022/11/25 00:10:49;;;;;;;4.23;2.40;;;;;;;;;;5005544;28;20301;-59
2022/11/25 00:13:15;;;;;;;3.73;1.90;;;;;;;;;;5002338;28;20233;-60
2022/11/25 00:15:41;;;;;;;5.90;2.27;;;;;;;;;;5007196;28;20553;-60
2022/11/25 00:18:07;;;;;;;5.73;2.60;;;;;;;;;;4998492;28;20590;-59
2022/11/25 00:20:33;;;;;;;5.43;2.27;;;;;;;;;;5006947;28;20561;-59
2022/11/25 00:22:59;;;;;;;5.47;2.23;;;;;;;;;;4998287;28;20187;-59
2022/11/25 00:25:25;;;;;;;6.77;2.60;;;;;;;;;;5003638;28;20198;-59
2022/11/25 00:27:52;;;;;;;9.67;2.90;;;;;;;;;;5000353;28;20190;-60
2022/11/25 00:30:18;;;;;;;8.20;2.20;;;;;;;;;;4988264;28;20205;-59
2022/11/25 00:32:44;;;;;;;6.23;2.30;;;;;;;;;;4991562;28;20210;-59
2022/11/25 00:35:10;;;;;;;4.30;1.80;;;;;;;;;;4991199;28;20585;-59
2022/11/25 00:37:36;;;;;;;5.60;2.13;;;;;;;;;;4988468;28;20794;-59
2022/11/25 00:40:02;;;;;;;5.30;2.17;;;;;;;;;;4989621;28;20183;-59
2022/11/25 00:45:13;;;;;;;6.00;1.83;;;;;;;;;;4992102;28;20193;-59
2022/11/25 00:47:39;;;;;;;3.67;1.87;;;;;;;;;;4992175;28;20213;-59
2022/11/25 00:50:05;;;;;;;6.13;3.07;;;;;;;;;;5000741;28;20364;-59
2022/11/25 00:52:35;;;;;;;5.00;2.23;;;;;;;;;;4993422;28;20218;-59
2022/11/25 00:55:01;;;;;;;6.37;2.03;;;;;;;;;;5004214;28;20194;-59
2022/11/25 00:57:29;;;;;;;3.87;2.20;;;;;;;;;;4995156;28;20533;-59
2022/11/25 00:59:55;;;;;;;3.83;2.97;;;;;;;;;;4992008;28;20181;-59
2022/11/25 01:02:21;;;;;;;6.23;2.53;;;;;;;;;;4988842;28;20608;-59
2022/11/25 01:04:47;;;;;;;5.23;1.87;;;;;;;;;;4987636;28;20512;-59
2022/11/25 01:07:13;;;;;;;7.83;2.20;;;;;;;;;;5002071;28;20700;-59
2022/11/25 01:09:39;;;;;;;5.30;2.20;;;;;;;;;;5001047;28;20186;-59
2022/11/25 01:12:06;;;;;;;4.37;2.13;;;;;;;;;;4996537;28;20598;-59
2022/11/25 01:14:32;;;;;;;2.93;1.83;;;;;;;;;;4988300;28;20713;-59
2022/11/25 01:16:58;;;;;;;3.90;2.03;;;;;;;;;;4991847;28;20178;-59
2022/11/25 01:19:24;;;;;;;3.97;2.10;;;;;;;;;;4987115;28;20183;-60
2022/11/25 01:21:51;;;;;;;7.47;2.70;;;;;;;;;;5005679;28;20205;-59
2022/11/25 01:24:17;;;;;;;6.30;1.97;;;;;;;;;;4989374;28;20168;-59
2022/11/25 01:26:43;;;;;;;7.67;2.50;;;;;;;;;;4981157;28;20262;-59
2022/11/25 01:29:17;;;;;;;5.70;1.97;;;;;;;;;;4991974;28;20195;-59
2022/11/25 01:31:43;;;;;;;7.97;2.30;;;;;;;;;;4992523;28;20637;-59
2022/11/25 01:34:14;;;;;;;5.60;2.50;;;;;;;;;;4982811;28;20685;-59
2022/11/25 01:36:41;;;;;;;7.20;2.10;;;;;;;;;;4998440;28;20277;-59
2022/11/25 01:39:07;;;;;;;6.20;1.93;;;;;;;;;;5004075;28;20761;-59
2022/11/25 01:41:33;;;;;;;6.00;2.07;;;;;;;;;;4997114;28;20182;-59
2022/11/25 01:44:04;;;;;;;9.17;2.23;;;;;;;;;;4989071;28;20219;-59
2022/11/25 01:46:34;;;;;;;8.43;2.03;;;;;;;;;;4987321;28;20207;-59
2022/11/25 01:49:01;;;;;;;5.93;2.00;;;;;;;;;;4970619;28;20199;-59
2022/11/25 01:51:29;;;;;;;7.73;2.37;;;;;;;;;;5002863;28;20558;-59
2022/11/25 01:53:57;;;;;;;5.70;2.63;;;;;;;;;;4996905;28;20247;-59
2022/11/25 01:56:25;;;;;;;6.90;1.90;;;;;;;;;;4991831;28;20187;-59
2022/11/25 01:58:51;;;;;;;4.60;1.60;;;;;;;;;;4997569;28;20863;-59
2022/11/25 02:01:17;;;;;;;5.57;2.33;;;;;;;;;;4992679;28;20611;-59
2022/11/25 02:03:46;;;;;;;5.03;2.43;;;;;;;;;;4994835;28;20209;-59
2022/11/25 02:06:14;;;;;;;5.07;2.60;;;;;;;;;;4990005;28;20750;-59
2022/11/25 02:08:43;;;;;;;7.30;2.50;;;;;;;;;;4985870;28;20199;-59
2022/11/25 02:11:09;;;;;;;7.87;2.70;;;;;;;;;;4988050;28;20216;-59
2022/11/25 02:13:35;;;;;;;7.43;2.30;;;;;;;;;;4997783;28;20246;-59
2022/11/25 02:16:01;;;;;;;9.63;2.60;;;;;;;;;;4990143;28;20183;-59
2022/11/25 02:18:27;;;;;;;3.53;2.03;;;;;;;;;;4973179;28;20281;-59
2022/11/25 02:20:53;;;;;;;4.43;2.30;;;;;;;;;;4971948;28;20289;-59
2022/11/25 02:23:33;;;;;;;5.33;1.80;;;;;;;;;;4988867;28;20681;-59
2022/11/25 02:25:59;;;;;;;5.90;2.17;;;;;;;;;;4986048;28;20198;-59
2022/11/25 02:28:27;;;;;;;5.13;2.60;;;;;;;;;;4979672;28;20198;-59
2022/11/25 02:30:53;;;;;;;11.27;2.53;;;;;;;;;;4993920;28;20182;-59
2022/11/25 02:33:19;;;;;;;9.53;2.77;;;;;;;;;;4989818;28;20207;-60
2022/11/25 02:35:51;;;;;;;7.70;2.87;;;;;;;;;;4989160;28;20747;-60
2022/11/25 02:38:20;;;;;;;6.00;2.20;;;;;;;;;;4999307;28;20224;-59
2022/11/25 02:40:57;;;;;;;7.50;2.60;;;;;;;;;;5000188;28;20189;-59
2022/11/25 02:43:23;;;;;;;4.30;1.80;;;;;;;;;;5004727;28;20300;-59
2022/11/25 02:45:56;;;;;;;5.90;2.20;;;;;;;;;;4992867;28;20191;-59
2022/11/25 02:48:22;;;;;;;5.67;2.50;;;;;;;;;;4999430;28;20264;-59
2022/11/25 02:50:49;;;;;;;9.80;3.50;;;;;;;;;;4993517;28;20183;-59
2022/11/25 02:53:15;;;;;;;3.10;1.63;;;;;;;;;;4995935;28;20285;-59
2022/11/25 02:55:41;;;;;;;7.47;2.50;;;;;;;;;;4988434;28;20602;-59
2022/11/25 02:58:08;;;;;;;5.23;2.60;;;;;;;;;;4999344;28;20265;-66
2022/11/25 03:00:34;;;;;;;6.17;2.50;;;;;;;;;;5000009;28;20182;-59
2022/11/25 03:03:00;;;;;;;5.30;2.40;;;;;;;;;;4986330;28;20324;-59
2022/11/25 03:05:26;;;;;;;5.17;2.50;;;;;;;;;;4999439;28;20634;-59
2022/11/25 03:07:52;;;;;;;6.20;2.60;;;;;;;;;;4997070;28;20548;-59
2022/11/25 03:10:18;;;;;;;5.23;2.70;;;;;;;;;;5002016;28;20885;-59
2022/11/25 03:12:44;;;;;;;5.83;2.40;;;;;;;;;;4996864;28;20568;-59
2022/11/25 03:15:11;;;;;;;4.60;2.57;;;;;;;;;;5002713;28;20194;-59
2022/11/25 03:17:37;;;;;;;3.27;2.17;;;;;;;;;;4994203;28;20610;-59
2022/11/25 03:20:04;;;;;;;5.20;2.00;;;;;;;;;;4985551;28;20191;-59
2022/11/25 03:22:30;;;;;;;8.57;2.63;;;;;;;;;;4997564;28;20865;-59
2022/11/25 03:24:56;;;;;;;6.63;2.47;;;;;;;;;;5002361;28;20532;-60
2022/11/25 03:27:22;;;;;;;5.00;2.37;;;;;;;;;;4992739;28;20637;-60
2022/11/25 03:29:48;;;;;;;7.80;2.10;;;;;;;;;;4984900;28;20191;-60
2022/11/25 03:32:14;;;;;;;4.33;1.90;;;;;;;;;;4987513;28;20676;-60
2022/11/25 03:34:40;;;;;;;10.17;2.30;;;;;;;;;;4995543;28;20183;-60
2022/11/25 03:37:06;;;;;;;5.87;2.90;;;;;;;;;;4990920;28;20183;-59
2022/11/25 03:39:32;;;;;;;8.20;2.53;;;;;;;;;;5005077;28;20178;-60
2022/11/25 03:41:58;;;;;;;6.50;2.47;;;;;;;;;;4996938;28;20270;-60
2022/11/25 03:44:24;;;;;;;4.10;2.33;;;;;;;;;;5005552;28;20249;-60
2022/11/25 03:46:50;;;;;;;8.50;2.20;;;;;;;;;;5002792;28;20265;-60
2022/11/25 03:49:17;;;;;;;8.10;2.50;;;;;;;;;;4986757;28;20230;-60
2022/11/25 03:51:43;;;;;;;4.80;1.77;;;;;;;;;;4994910;28;20189;-59
2022/11/25 03:54:09;;;;;;;5.17;2.27;;;;;;;;;;4999511;28;20282;-60
2022/11/25 03:56:35;;;;;;;5.43;2.87;;;;;;;;;;4996718;28;20261;-60
2022/11/25 03:59:01;;;;;;;3.30;1.83;;;;;;;;;;5000598;28;20588;-60
2022/11/25 04:01:27;;;;;;;5.07;1.93;;;;;;;;;;4995681;28;20179;-62
2022/11/25 04:03:53;;;;;;;6.63;2.93;;;;;;;;;;4996431;28;20297;-62
2022/11/25 04:06:20;;;;;;;6.60;2.27;;;;;;;;;;5003460;28;20254;-61
2022/11/25 04:08:47;;;;;;;6.57;2.40;;;;;;;;;;4974732;28;20567;-60
2022/11/25 04:11:13;;;;;;;5.13;3.10;;;;;;;;;;4996110;28;20205;-59
2022/11/25 04:13:39;;;;;;;4.30;2.50;;;;;;;;;;4998401;28;20198;-60
2022/11/25 04:16:05;;;;;;;5.70;2.10;;;;;;;;;;4985958;28;20262;-60
2022/11/25 04:18:31;;;;;;;5.63;2.43;;;;;;;;;;4994190;28;20582;-60
2022/11/25 04:20:57;;;;;;;6.20;2.70;;;;;;;;;;4969012;28;20603;-60
2022/11/25 04:23:23;;;;;;;5.83;2.40;;;;;;;;;;4998640;28;20270;-60
2022/11/25 04:25:50;;;;;;;5.27;2.23;;;;;;;;;;4992184;28;20186;-60
2022/11/25 04:28:16;;;;;;;6.33;2.50;;;;;;;;;;4997282;28;20657;-60
2022/11/25 04:30:42;;;;;;;5.67;2.27;;;;;;;;;;4993126;28;20492;-60
2022/11/25 04:33:09;;;;;;;5.10;2.50;;;;;;;;;;4991253;28;20203;-60
2022/11/25 04:35:35;;;;;;;7.53;2.83;;;;;;;;;;4972265;28;20183;-60
2022/11/25 04:38:01;;;;;;;6.67;2.77;;;;;;;;;;4974753;28;20243;-60
2022/11/25 04:40:27;;;;;;;5.40;3.00;;;;;;;;;;5001470;28;20287;-60
2022/11/25 04:42:53;;;;;;;3.33;2.20;;;;;;;;;;5000980;28;20625;-60
2022/11/25 04:45:19;;;;;;;3.93;2.07;;;;;;;;;;5005825;28;20211;-60
2022/11/25 04:47:45;;;;;;;4.77;2.03;;;;;;;;;;4997376;28;20281;-60
2022/11/25 04:50:16;;;;;;;3.50;2.50;;;;;;;;;;4997729;28;20190;-60
2022/11/25 04:52:42;;;;;;;8.27;3.13;;;;;;;;;;4989849;28;20215;-60
2022/11/25 04:55:08;;;;;;;4.00;2.30;;;;;;;;;;4969731;28;20801;-61
2022/11/25 04:57:34;;;;;;;4.60;2.50;;;;;;;;;;4987728;28;20152;-60
2022/11/25 05:00:00;;;;;;;6.63;2.60;;;;;;;;;;4989377;28;20183;-61
2022/11/25 05:02:27;;;;;;;7.07;2.90;;;;;;;;;;5000146;28;20509;-62
2022/11/25 05:04:55;;;;;;;9.23;3.47;;;;;;;;;;4982894;28;20542;-61
2022/11/25 05:07:22;;;;;;;6.03;2.30;;;;;;;;;;4992043;28;20198;-61
2022/11/25 05:09:48;;;;;;;6.50;2.53;;;;;;;;;;4998777;28;20658;-61
2022/11/25 05:12:22;;;;;;;4.50;2.07;;;;;;;;;;4995522;28;20241;-60
2022/11/25 05:14:48;;;;;;;3.17;2.03;;;;;;;;;;4995046;28;20180;-60
2022/11/25 05:17:22;;;;;;;4.40;3.10;;;;;;;;;;4995012;28;20182;-61
2022/11/25 05:19:48;;;;;;;7.67;3.07;;;;;;;;;;4995257;28;20183;-60
2022/11/25 05:22:15;;;;;;;3.00;2.10;;;;;;;;;;4992464;28;20183;-60
2022/11/25 05:24:42;;;;;;;5.60;2.40;;;;;;;;;;4994525;28;20661;-60
2022/11/25 05:27:08;;;;;;;7.07;3.07;;;;;;;;;;4991326;28;20190;-60
2022/11/25 05:29:34;;;;;;;5.27;3.03;;;;;;;;;;4991006;28;20646;-60
2022/11/25 05:32:00;;;;;;;4.30;2.30;;;;;;;;;;4990699;28;20402;-60
2022/11/25 05:34:26;;;;;;;4.30;2.53;;;;;;;;;;4977840;28;20731;-61
2022/11/25 05:36:52;;;;;;;4.87;2.73;;;;;;;;;;4986461;28;20253;-60
2022/11/25 05:39:18;;;;;;;7.87;2.80;;;;;;;;;;4987860;28;20238;-60
2022/11/25 05:41:50;;;;;;;4.77;2.50;;;;;;;;;;4987479;28;20178;-60
2022/11/25 05:44:37;;;;;;;7.77;2.90;;;;;;;;;;4991700;28;20325;-60
2022/11/25 05:47:03;;;;;;;9.63;2.47;;;;;;;;;;4988270;28;20238;-60
2022/11/25 05:49:29;;;;;;;6.20;2.60;;;;;;;;;;4993602;28;20190;-60
2022/11/25 05:51:56;;;;;;;4.50;2.37;;;;;;;;;;4988610;28;20190;-60
2022/11/25 05:54:22;;;;;;;7.40;2.70;;;;;;;;;;4988427;28;20203;-59
2022/11/25 05:56:48;;;;;;;9.53;3.20;;;;;;;;;;4990071;28;20233;-60
2022/11/25 05:59:14;;;;;;;5.80;2.87;;;;;;;;;;4988941;28;20583;-59
2022/11/25 06:01:40;;;;;;;4.43;2.73;;;;;;;;;;4991371;28;20258;-60
2022/11/25 06:04:06;;;;;;;5.93;2.77;;;;;;;;;;5004621;28;20203;-60
2022/11/25 06:06:32;;;;;;;5.07;2.60;;;;;;;;;;4988393;28;20198;-59
2022/11/25 06:08:58;;;;;;;8.83;2.90;;;;;;;;;;4984990;28;20724;-59
2022/11/25 06:11:24;;;;;;;7.00;2.23;;;;;;;;;;4989828;28;20551;-60
2022/11/25 06:13:50;;;;;;;11.00;3.10;;;;;;;;;;4996645;28;20211;-60
2022/11/25 06:16:18;;;;;;;3.83;2.27;;;;;;;;;;4994787;28;20182;-60
2022/11/25 06:18:44;;;;;;;4.90;2.60;;;;;;;;;;4998990;28;20732;-60
2022/11/25 06:21:11;;;;;;;6.53;2.90;;;;;;;;;;4993735;28;20221;-60
2022/11/25 06:23:37;;;;;;;7.80;2.60;;;;;;;;;;4989868;28;20705;-60
2022/11/25 06:26:07;;;;;;;4.93;2.13;;;;;;;;;;4990339;28;20533;-60
2022/11/25 06:28:34;;;;;;;6.23;2.70;;;;;;;;;;5001704;28;20535;-59
2022/11/25 06:31:10;;;;;;;5.80;2.53;;;;;;;;;;4990950;28;20261;-60
2022/11/25 06:33:36;;;;;;;5.63;2.50;;;;;;;;;;5008042;28;20190;-60
2022/11/25 06:36:07;;;;;;;5.60;2.17;;;;;;;;;;4982276;28;20377;-60
2022/11/25 06:38:33;;;;;;;6.57;3.47;;;;;;;;;;4989803;28;20187;-60
2022/11/25 06:41:03;;;;;;;5.27;2.70;;;;;;;;;;4985880;28;20617;-60
2022/11/25 06:43:30;;;;;;;5.33;2.67;;;;;;;;;;4987488;28;20486;-60
2022/11/25 06:46:01;;;;;;;5.80;2.90;;;;;;;;;;4985965;28;20207;-60
2022/11/25 06:48:27;;;;;;;3.80;2.90;;;;;;;;;;4986283;28;20164;-60
2022/11/25 06:50:57;;;;;;;9.17;4.03;;;;;;;;;;4984450;28;20214;-60
2022/11/25 06:53:23;;;;;;;4.37;2.70;;;;;;;;;;4985936;28;20190;-60
2022/11/25 06:55:49;;;;;;;6.07;2.93;;;;;;;;;;4985588;28;20190;-60
2022/11/25 06:58:15;;;;;;;6.83;2.60;;;;;;;;;;4986738;28;20175;-60
2022/11/25 07:00:41;;;;;;;5.03;2.77;;;;;;;;;;4992959;28;20320;-60
2022/11/25 07:03:07;;;;;;;5.30;2.60;;;;;;;;;;5005555;28;20503;-60
2022/11/25 07:05:33;;;;;;;4.43;2.87;;;;;;;;;;5003995;28;20162;-60
2022/11/25 07:07:59;;;;;;;5.63;2.67;;;;;;;;;;5005452;28;20166;-60
2022/11/25 07:10:25;;;;;;;5.23;3.27;;;;;;;;;;4987293;28;20189;-62
2022/11/25 07:12:51;;;;;;;5.87;2.80;;;;;;;;;;5005113;28;20190;-61
2022/11/25 07:15:17;;;;;;;6.43;2.60;;;;;;;;;;4994204;28;20561;-61
2022/11/25 07:17:44;;;;;;;4.53;2.13;;;;;;;;;;4966700;28;20178;-61
2022/11/25 07:20:10;;;;;;;6.07;3.07;;;;;;;;;;4985896;28;20511;-61
2022/11/25 07:22:36;;;;;;;6.87;3.13;;;;;;;;;;4984431;28;20615;-61
2022/11/25 07:25:02;;;;;;;6.40;3.50;;;;;;;;;;4985663;28;20611;-61
2022/11/25 07:27:28;;;;;;;8.73;3.17;;;;;;;;;;4985189;28;20151;-61
2022/11/25 07:29:54;;;;;;;4.77;2.97;;;;;;;;;;4989911;28;20487;-61
2022/11/25 07:32:20;;;;;;;8.63;2.90;;;;;;;;;;5004951;28;20163;-61
2022/11/25 07:34:50;;;;;;;6.30;3.13;;;;;;;;;;4986038;28;20176;-61
2022/11/25 07:37:16;;;;;;;3.97;2.80;;;;;;;;;;4984407;28;20250;-62
2022/11/25 07:39:42;;;;;;;6.03;2.67;;;;;;;;;;4967914;28;20670;-61
2022/11/25 07:42:08;;;;;;;4.10;2.67;;;;;;;;;;4985292;28;20156;-61
2022/11/25 07:44:34;;;;;;;5.00;2.43;;;;;;;;;;4995643;28;20320;-62
2022/11/25 07:47:00;;;;;;;3.70;2.57;;;;;;;;;;5004535;28;20236;-62
2022/11/25 07:49:26;;;;;;;5.40;2.47;;;;;;;;;;5004930;28;20194;-61
2022/11/25 07:51:54;;;;;;;6.20;2.87;;;;;;;;;;5004031;28;20171;-62
2022/11/25 07:54:21;;;;;;;7.47;3.40;;;;;;;;;;5005001;28;20191;-61
2022/11/25 07:56:48;;;;;;;5.67;2.47;;;;;;;;;;4989894;28;20501;-61
2022/11/25 07:59:16;;;;;;;7.33;3.10;;;;;;;;;;5008967;28;20629;-63
2022/11/25 08:01:42;;;;;;;9.40;2.90;;;;;;;;;;5008474;28;20162;-61
2022/11/25 08:04:09;;;;;;;5.80;2.47;;;;;;;;;;5009229;28;20691;-62
2022/11/25 08:06:37;;;;;;;5.43;2.70;;;;;;;;;;5007760;28;20626;-61
2022/11/25 08:09:03;;;;;;;4.50;2.77;;;;;;;;;;5008729;28;20233;-62
2022/11/25 08:11:30;;;;;;;6.13;3.03;;;;;;;;;;4999857;28;20231;-61
2022/11/25 08:13:57;;;;;;;3.73;2.70;;;;;;;;;;4972498;28;20318;-61
2022/11/25 08:16:25;;;;;;;4.43;2.77;;;;;;;;;;4988651;28;20160;-62
2022/11/25 08:18:51;;;;;;;2.97;2.43;;;;;;;;;;4988872;28;20215;-62
2022/11/25 08:21:17;;;;;;;4.37;3.10;;;;;;;;;;4987647;28;20171;-62
2022/11/25 08:23:47;;;;;;;8.43;3.07;;;;;;;;;;4989011;28;20681;-61
2022/11/25 08:26:14;;;;;;;4.73;2.77;;;;;;;;;;4988422;28;20152;-62
2022/11/25 08:28:41;;;;;;;4.50;2.93;;;;;;;;;;4997775;28;20700;-61
2022/11/25 08:31:12;;;;;;;3.10;2.80;;;;;;;;;;5000337;28;20175;-62
2022/11/25 08:33:38;;;;;;;6.43;2.77;;;;;;;;;;4988188;28;20199;-62
2022/11/25 08:36:04;;;;;;;5.77;3.23;;;;;;;;;;4987033;28;20167;-62
2022/11/25 08:38:30;;;;;;;5.27;2.53;;;;;;;;;;4988687;28;20155;-62
2022/11/25 08:40:57;;;;;;;3.50;2.50;;;;;;;;;;4988139;28;20156;-62
2022/11/25 08:43:24;;;;;;;5.23;2.90;;;;;;;;;;4972717;28;20183;-62
2022/11/25 08:45:50;;;;;;;4.27;2.60;;;;;;;;;;4988018;28;20266;-61
2022/11/25 08:48:18;;;;;;;5.63;3.10;;;;;;;;;;4970765;28;20230;-62
2022/11/25 08:50:49;;;;;;;3.00;2.43;;;;;;;;;;4987029;28;20246;-62
2022/11/25 08:53:16;;;;;;;3.37;2.63;;;;;;;;;;4987999;28;20195;-62
2022/11/25 08:55:42;;;;;;;5.43;3.60;;;;;;;;;;4987707;28;20630;-62
2022/11/25 08:58:10;;;;;;;5.80;3.10;;;;;;;;;;4970684;28;20179;-62
2022/11/25 09:00:36;;;;;;;6.20;2.87;;;;;;;;;;4992465;28;20647;-62
2022/11/25 09:03:02;;;;;;;11.00;3.00;;;;;;;;;;4988149;28;20221;-63
2022/11/25 09:05:34;;;;;;;5.43;2.73;;;;;;;;;;4969647;28;20167;-62
2022/11/25 09:08:00;;;;;;;4.77;2.70;;;;;;;;;;4987401;28;20151;-65
2022/11/25 09:10:26;;;;;;;5.73;2.97;;;;;;;;;;4987716;28;20183;-62
2022/11/25 09:12:52;;;;;;;5.90;3.20;;;;;;;;;;4970151;28;20199;-62
2022/11/25 09:15:18;;;;;;;5.37;3.23;;;;;;;;;;4987427;28;20204;-62
2022/11/25 09:17:44;;;;;;;4.50;2.90;;;;;;;;;;4969772;28;20179;-62
2022/11/25 09:20:11;;;;;;;5.63;2.87;;;;;;;;;;4987728;28;20178;-61
2022/11/25 09:22:37;;;;;;;4.30;2.83;;;;;;;;;;4968712;28;20163;-61
2022/11/25 09:25:03;;;;;;;7.47;3.47;;;;;;;;;;4969835;28;20726;-62
2022/11/25 09:27:30;;;;;;;3.93;2.70;;;;;;;;;;4987689;28;20670;-63
2022/11/25 09:29:56;;;;;;;6.10;3.03;;;;;;;;;;4975391;28;20274;-62
2022/11/25 09:32:22;;;;;;;6.30;2.93;;;;;;;;;;5002863;28;20167;-62
2022/11/25 09:34:48;;;;;;;4.43;2.53;;;;;;;;;;5006222;28;20233;-62
2022/11/25 09:37:15;;;;;;;4.83;2.70;;;;;;;;;;5005980;28;20194;-62
2022/11/25 09:39:41;;;;;;;5.20;3.30;;;;;;;;;;5006906;28;20174;-63
2022/11/25 09:47:58;;;;;;;4.33;2.10;;;;;;;;;;4986732;28;20330;-62
2022/11/25 09:50:34;;;;;;;3.33;2.33;;;;;;;;;;4986671;28;20270;-62
2022/11/25 09:53:24;;;;;;;5.97;2.83;;;;;;;;;;4986379;28;20201;-61
2022/11/25 09:55:51;;;;;;;3.30;2.47;;;;;;;;;;4986502;28;20633;-62
2022/11/25 09:58:26;;;;;;;6.37;2.73;;;;;;;;;;4986777;28;20674;-61
2022/11/25 10:00:52;;;;;;;3.93;2.20;;;;;;;;;;4986318;28;20517;-61
2022/11/25 10:03:28;;;;;;;4.90;2.27;;;;;;;;;;4968947;28;20505;-61
2022/11/25 10:06:01;;;;;;;6.20;2.90;;;;;;;;;;4985530;28;20163;-61
2022/11/25 10:08:29;;;;;;;3.43;2.57;;;;;;;;;;4986604;28;20604;-61
2022/11/25 10:10:59;;;;;;;4.50;3.00;;;;;;;;;;4985944;28;20552;-61
2022/11/25 10:13:46;;;;;;;3.50;2.73;;;;;;;;;;4986367;28;20211;-61
2022/11/25 10:16:35;;;;;;;4.40;2.40;;;;;;;;;;4984445;28;20179;-61
2022/11/25 10:19:11;;;;;;;6.37;3.10;;;;;;;;;;4977076;28;20197;-61
2022/11/25 10:21:37;;;;;;;9.23;2.77;;;;;;;;;;5004920;28;20155;-61
2022/11/25 10:24:04;;;;;;;2.63;2.13;;;;;;;;;;5005837;28;20178;-62
2022/11/25 10:26:35;;;;;;;5.03;2.80;;;;;;;;;;5005706;28;20169;-61
2022/11/25 10:29:13;;;;;;;6.27;2.90;;;;;;;;;;5005876;28;20258;-61
2022/11/25 10:31:40;;;;;;;3.57;2.20;;;;;;;;;;5005651;28;20181;-61
2022/11/25 10:34:16;;;;;;;5.07;2.33;;;;;;;;;;5005772;28;20220;-61
2022/11/25 10:36:43;;;;;;;7.47;3.50;;;;;;;;;;5004413;28;20166;-61
2022/11/25 10:39:25;;;;;;;6.03;2.67;;;;;;;;;;5005855;28;20162;-61
2022/11/25 10:41:58;;;;;;;4.17;2.30;;;;;;;;;;4999452;28;20183;-62
2022/11/25 10:44:28;;;;;;;5.00;2.70;;;;;;;;;;4988046;28;20222;-62
2022/11/25 10:47:18;;;;;;;3.57;2.20;;;;;;;;;;4985589;28;20242;-62
2022/11/25 10:49:49;;;;;;;5.00;2.10;;;;;;;;;;4989097;28;20194;-62
2022/11/25 10:52:20;;;;;;;3.87;2.20;;;;;;;;;;5003998;28;20177;-61
2022/11/25 10:54:55;;;;;;;4.10;2.20;;;;;;;;;;4985559;28;20179;-62
2022/11/25 10:57:26;;;;;;;6.20;2.53;;;;;;;;;;4985477;28;20170;-61
2022/11/25 10:59:56;;;;;;;6.87;2.30;;;;;;;;;;4985836;28;20569;-61
2022/11/25 11:02:35;;;;;;;6.33;2.53;;;;;;;;;;4985099;28;20155;-61
2022/11/25 11:05:02;;;;;;;4.00;2.30;;;;;;;;;;4968328;28;20611;-61
2022/11/25 11:07:32;;;;;;;6.87;2.50;;;;;;;;;;4984781;28;20266;-61
2022/11/25 11:10:16;;;;;;;4.70;2.37;;;;;;;;;;4985884;28;20194;-61
2022/11/25 11:12:59;;;;;;;4.50;2.10;;;;;;;;;;4985374;28;20202;-61
2022/11/25 11:15:27;;;;;;;4.17;1.90;;;;;;;;;;4994786;28;20765;-61
2022/11/25 11:17:53;;;;;;;5.83;2.87;;;;;;;;;;5005303;28;20204;-61
2022/11/25 11:20:23;;;;;;;5.00;2.50;;;;;;;;;;5005202;28;20170;-61
2022/11/25 11:22:54;;;;;;;6.03;2.20;;;;;;;;;;5004442;28;20799;-61
2022/11/25 11:25:20;;;;;;;6.30;2.27;;;;;;;;;;5005059;28;20162;-61
2022/11/25 11:27:47;;;;;;;5.97;2.27;;;;;;;;;;5003341;28;20541;-61
2022/11/25 11:30:16;;;;;;;5.90;2.47;;;;;;;;;;5007158;28;20325;-61
2022/11/25 11:32:44;;;;;;;4.43;2.50;;;;;;;;;;5009587;28;20301;-61
2022/11/25 11:35:12;;;;;;;7.43;2.93;;;;;;;;;;5009206;28;20173;-61
2022/11/25 11:37:54;;;;;;;5.87;2.50;;;;;;;;;;5008399;28;20154;-61
2022/11/25 11:40:24;;;;;;;6.27;2.67;;;;;;;;;;5009024;28;20625;-61
2022/11/25 11:43:02;;;;;;;6.67;2.33;;;;;;;;;;4997792;28;20186;-61
2022/11/25 11:45:47;;;;;;;6.37;2.73;;;;;;;;;;4990822;28;20235;-61
2022/11/25 11:48:19;;;;;;;3.43;2.13;;;;;;;;;;4989307;28;20175;-61
2022/11/25 11:50:47;;;;;;;4.27;2.37;;;;;;;;;;4988073;28;21049;-61
2022/11/25 11:53:32;;;;;;;3.87;2.30;;;;;;;;;;4989152;28;20314;-61
2022/11/25 11:55:59;;;;;;;4.90;2.03;;;;;;;;;;4988649;28;20594;-61
2022/11/25 11:58:43;;;;;;;6.33;2.40;;;;;;;;;;5007834;28;20646;-61
2022/11/25 12:01:32;;;;;;;4.90;2.67;;;;;;;;;;5007937;28;20162;-61
2022/11/25 12:04:01;;;;;;;9.37;3.07;;;;;;;;;;4990957;28;20512;-61
2022/11/25 12:06:29;;;;;;;3.80;2.57;;;;;;;;;;5007560;28;20592;-61
2022/11/25 12:09:01;;;;;;;7.67;2.30;;;;;;;;;;4991067;28;20166;-61
2022/11/25 12:11:38;;;;;;;3.60;2.10;;;;;;;;;;5008160;28;20171;-61
2022/11/25 12:14:12;;;;;;;5.80;2.70;;;;;;;;;;4996069;28;20202;-61
2022/11/25 12:17:04;;;;;;;4.67;2.57;;;;;;;;;;4988545;28;20163;-61
2022/11/25 12:19:32;;;;;;;4.47;2.70;;;;;;;;;;4956101;28;20192;-61
2022/11/25 12:22:02;;;;;;;5.97;2.33;;;;;;;;;;4989223;28;20147;-61
2022/11/25 12:24:32;;;;;;;7.00;3.00;;;;;;;;;;5006667;28;20546;-61
2022/11/25 12:27:01;;;;;;;9.23;2.37;;;;;;;;;;5007685;28;20178;-61
2022/11/25 12:29:42;;;;;;;5.17;2.70;;;;;;;;;;4990101;28;20179;-61
2022/11/25 12:32:16;;;;;;;6.83;2.63;;;;;;;;;;5007835;28;20158;-61
2022/11/25 12:34:53;;;;;;;6.40;2.97;;;;;;;;;;4986669;28;20580;-61
2022/11/25 12:37:38;;;;;;;4.20;2.60;;;;;;;;;;4987312;28;20159;-61
2022/11/25 12:40:20;;;;;;;7.57;2.30;;;;;;;;;;4970622;28;20646;-61
2022/11/25 12:42:48;;;;;;;4.77;2.30;;;;;;;;;;4987297;28;20163;-62
2022/11/25 12:45:20;;;;;;;6.10;3.03;;;;;;;;;;4989888;28;20226;-64
2022/11/25 12:47:46;;;;;;;4.37;2.70;;;;;;;;;;4987875;28;20199;-65
2022/11/25 12:50:16;;;;;;;4.03;2.37;;;;;;;;;;4988348;28;20171;-62
2022/11/25 12:52:46;;;;;;;4.70;2.30;;;;;;;;;;4985309;28;20183;-62
2022/11/25 12:55:17;;;;;;;6.00;2.80;;;;;;;;;;4987944;28;20695;-63
2022/11/25 12:57:53;;;;;;;8.27;3.00;;;;;;;;;;4987649;28;20163;-62
2022/11/25 13:00:21;;;;;;;7.20;2.57;;;;;;;;;;4988103;28;20179;-61
2022/11/25 13:03:06;;;;;;;7.97;2.60;;;;;;;;;;4987690;28;20160;-62
2022/11/25 13:05:50;;;;;;;5.53;2.57;;;;;;;;;;4987008;28;20167;-61
2022/11/25 13:08:24;;;;;;;5.50;2.27;;;;;;;;;;4987938;28;20210;-62
2022/11/25 13:11:09;;;;;;;6.17;3.13;;;;;;;;;;4969737;28;20438;-61
2022/11/25 13:13:46;;;;;;;9.10;2.63;;;;;;;;;;5001481;28;20569;-62
2022/11/25 13:16:12;;;;;;;8.43;3.27;;;;;;;;;;5007203;28;20166;-62
2022/11/25 13:18:41;;;;;;;7.63;2.43;;;;;;;;;;5007325;28;20182;-61
2022/11/25 13:21:11;;;;;;;5.70;3.03;;;;;;;;;;5006483;28;20626;-61
2022/11/25 13:23:40;;;;;;;8.50;3.13;;;;;;;;;;5006987;28;20170;-62
2022/11/25 13:26:24;;;;;;;4.53;2.40;;;;;;;;;;5007010;28;20233;-61
2022/11/25 13:28:50;;;;;;;4.37;2.40;;;;;;;;;;5007247;28;20659;-61
2022/11/25 13:31:18;;;;;;;7.53;2.23;;;;;;;;;;5006401;28;20273;-61
2022/11/25 13:33:44;;;;;;;8.13;2.60;;;;;;;;;;4979031;28;20261;-61
2022/11/25 13:36:18;;;;;;;8.20;2.50;;;;;;;;;;5000516;28;20178;-62
2022/11/25 13:38:44;;;;;;;8.20;3.33;;;;;;;;;;4998608;28;20784;-62
2022/11/25 13:41:10;;;;;;;5.27;3.30;;;;;;;;;;5006900;28;20159;-62
2022/11/25 13:43:51;;;;;;;7.70;2.73;;;;;;;;;;5002303;28;20202;-62
2022/11/25 13:46:57;;;;;;;5.20;2.37;;;;;;;;;;4979415;28;20673;-62
2022/11/25 13:49:34;;;;;;;6.13;3.07;;;;;;;;;;4894402;29;20692;-62
2022/11/25 13:52:02;;;;;;;5.00;2.67;;;;;;;;;;4888311;29;20605;-62
2022/11/25 13:54:34;;;;;;;9.50;2.63;;;;;;;;;;4952238;28;20254;-62
2022/11/25 13:57:14;;;;;;;6.60;2.83;;;;;;;;;;4988981;28;20179;-62
2022/11/25 13:59:40;;;;;;;6.10;2.73;;;;;;;;;;5004513;28;20158;-62
2022/11/25 14:02:33;;;;;;;6.43;2.77;;;;;;;;;;5000552;28;20175;-62
2022/11/25 14:04:59;;;;;;;5.30;2.73;;;;;;;;;;4989993;28;20191;-62
2022/11/25 14:07:43;;;;;;;8.40;3.37;;;;;;;;;;5003896;28;20185;-62
2022/11/25 14:10:20;;;;;;;4.70;3.10;;;;;;;;;;4992202;28;20278;-62
2022/11/25 14:13:06;;;;;;;5.23;2.57;;;;;;;;;;4995455;28;20183;-62
2022/11/25 14:15:41;;;;;;;6.27;2.57;;;;;;;;;;4998160;28;20508;-62
2022/11/25 14:18:19;;;;;;;6.50;2.73;;;;;;;;;;5005983;28;20216;-62
2022/11/25 14:20:51;;;;;;;3.50;2.23;;;;;;;;;;4968108;28;20179;-62
2022/11/25 14:23:20;;;;;;;4.47;2.73;;;;;;;;;;4981406;28;20551;-62
2022/11/25 14:25:51;;;;;;;4.03;2.50;;;;;;;;;;5025426;28;20158;-62
2022/11/25 14:28:20;;;;;;;5.83;2.57;;;;;;;;;;5000726;28;20746;-62
2022/11/25 14:30:50;;;;;;;5.73;2.43;;;;;;;;;;4990789;28;20308;-62
2022/11/25 14:33:17;;;;;;;3.77;2.20;;;;;;;;;;4988499;28;20198;-62
2022/11/25 14:35:51;;;;;;;4.23;2.60;;;;;;;;;;4995010;28;20195;-62
2022/11/25 14:38:24;;;;;;;7.33;2.40;;;;;;;;;;4986451;28;20616;-62
2022/11/25 14:41:08;;;;;;;6.47;2.70;;;;;;;;;;4999111;28;20185;-62
2022/11/25 14:43:39;;;;;;;5.33;2.43;;;;;;;;;;5005560;28;20178;-62
2022/11/25 14:46:16;;;;;;;7.57;2.80;;;;;;;;;;4986605;28;20698;-62
2022/11/25 14:48:43;;;;;;;9.43;2.93;;;;;;;;;;5003668;28;20190;-62
2022/11/25 14:51:10;;;;;;;4.03;2.40;;;;;;;;;;5005621;28;20190;-62
2022/11/25 14:53:44;;;;;;;4.77;2.50;;;;;;;;;;5003503;28;20523;-62
2022/11/25 14:56:10;;;;;;;3.80;2.73;;;;;;;;;;5000704;28;20171;-62
2022/11/25 14:58:47;;;;;;;5.67;3.00;;;;;;;;;;5003075;28;20158;-62
2022/11/25 15:01:24;;;;;;;7.10;3.03;;;;;;;;;;5001257;28;20190;-62
2022/11/25 15:03:51;;;;;;;4.33;2.47;;;;;;;;;;4999519;28;20194;-62